Time;durP1;ratioP1;P1;durP2;ratioP2;P2;SDS_P1;SDS_P2;PMS_P1;PMS_P2;Temp;Humidity;BMP_temperature;BMP_pressure;BME280_temperature;BME280_humidity;BME280_pressure;Samples;Min_cycle;Max_cycle;Signal;HPM_P1;HPM_P2
2023/06/04 00:02:18;;;;;;;;;;;19.20;73.00;;;;;;5026562;28;20368;-77
2023/06/04 00:04:45;;;;;;;;;;;19.20;73.00;;;;;;5009830;28;20387;-77
2023/06/04 00:07:13;;;;;;;;;;;19.10;72.90;;;;;;5027705;28;19959;-77
2023/06/04 00:09:40;;;;;;;;;;;19.10;72.90;;;;;;5027211;28;19925;-77
2023/06/04 00:12:07;;;;;;;;;;;19.10;72.90;;;;;;5025859;28;20375;-77
2023/06/04 00:14:34;;;;;;;;;;;19.10;72.80;;;;;;5029747;28;19925;-77
2023/06/04 00:17:01;;;;;;;;;;;19.10;72.60;;;;;;5011127;28;19926;-77
2023/06/04 00:19:28;;;;;;;;;;;19.00;72.70;;;;;;5026798;28;19929;-77
2023/06/04 00:21:55;;;;;;;;;;;19.00;72.50;;;;;;5025028;28;19931;-76
2023/06/04 00:24:23;;;;;;;;;;;19.00;72.50;;;;;;5028653;28;20019;-77
2023/06/04 00:26:49;;;;;;;;;;;19.00;72.50;;;;;;5027546;28;19925;-77
2023/06/04 00:29:16;;;;;;;;;;;19.00;72.40;;;;;;5026016;28;19926;-76
2023/06/04 00:31:43;;;;;;;;;;;18.90;72.50;;;;;;5028794;28;19936;-77
2023/06/04 00:34:11;;;;;;;;;;;18.90;72.30;;;;;;5026295;28;20348;-76
2023/06/04 00:36:37;;;;;;;;;;;18.90;72.40;;;;;;5027488;28;19929;-77
2023/06/04 00:39:04;;;;;;;;;;;18.90;72.50;;;;;;5028503;28;20011;-77
2023/06/04 00:41:32;;;;;;;;;;;18.80;72.30;;;;;;5011660;28;20319;-76
2023/06/04 00:44:01;;;;;;;;;;;18.80;72.40;;;;;;5024106;28;19925;-77
2023/06/04 00:46:28;;;;;;;;;;;18.80;72.00;;;;;;5030165;28;19925;-76
2023/06/04 00:48:55;;;;;;;;;;;18.80;72.00;;;;;;5027865;28;19925;-76
2023/06/04 00:51:22;;;;;;;;;;;18.70;72.00;;;;;;5021000;28;19936;-77
2023/06/04 00:53:50;;;;;;;;;;;18.70;72.10;;;;;;5011194;28;19926;-77
2023/06/04 00:56:17;;;;;;;;;;;18.70;72.00;;;;;;5029624;28;19929;-77
2023/06/04 00:58:46;;;;;;;;;;;18.70;72.00;;;;;;5027426;28;19925;-77
2023/06/04 01:01:16;;;;;;;;;;;18.70;72.10;;;;;;5028327;28;19957;-77
2023/06/04 01:03:43;;;;;;;;;;;18.60;72.20;;;;;;5011459;28;20015;-77
2023/06/04 01:06:14;;;;;;;;;;;18.60;72.30;;;;;;5028737;28;19929;-76
2023/06/04 01:08:42;;;;;;;;;;;18.60;72.10;;;;;;5028082;28;19926;-75
2023/06/04 01:11:09;;;;;;;;;;;18.60;72.10;;;;;;5010672;28;19979;-77
2023/06/04 01:13:36;;;;;;;;;;;18.50;72.10;;;;;;5026793;28;19933;-77
2023/06/04 01:16:05;;;;;;;;;;;18.50;72.20;;;;;;5025566;28;20032;-77
2023/06/04 01:18:36;;;;;;;;;;;18.50;72.20;;;;;;5022463;28;19929;-77
2023/06/04 01:21:06;;;;;;;;;;;18.50;72.20;;;;;;5028631;28;19925;-77
2023/06/04 01:23:38;;;;;;;;;;;18.50;72.40;;;;;;5027098;28;19968;-77
2023/06/04 01:26:05;;;;;;;;;;;18.40;72.30;;;;;;5028046;28;19993;-77
2023/06/04 01:28:33;;;;;;;;;;;18.40;72.10;;;;;;5023401;28;20023;-77
2023/06/04 01:31:01;;;;;;;;;;;18.40;72.10;;;;;;5023322;28;20346;-77
2023/06/04 01:33:29;;;;;;;;;;;18.40;72.20;;;;;;5026623;28;20303;-77
2023/06/04 01:35:58;;;;;;;;;;;18.30;72.10;;;;;;5026628;28;19962;-77
2023/06/04 01:38:27;;;;;;;;;;;18.30;72.10;;;;;;5026803;28;20621;-77
2023/06/04 01:40:56;;;;;;;;;;;18.30;72.20;;;;;;5033350;28;19931;-77
2023/06/04 01:43:23;;;;;;;;;;;18.30;72.10;;;;;;5030369;28;19931;-77
2023/06/04 01:45:50;;;;;;;;;;;18.20;72.00;;;;;;5029597;28;19928;-77
2023/06/04 01:48:17;;;;;;;;;;;18.20;72.00;;;;;;5028368;28;19925;-77
2023/06/04 01:50:46;;;;;;;;;;;18.20;72.20;;;;;;5031772;28;19925;-77
2023/06/04 01:53:13;;;;;;;;;;;18.20;72.20;;;;;;5027277;28;19933;-76
2023/06/04 01:55:40;;;;;;;;;;;18.10;72.10;;;;;;5031249;28;20352;-77
2023/06/04 01:58:09;;;;;;;;;;;18.10;72.00;;;;;;5014125;28;19964;-77
2023/06/04 02:00:35;;;;;;;;;;;18.10;72.00;;;;;;5031993;28;20366;-77
2023/06/04 02:03:02;;;;;;;;;;;18.10;71.90;;;;;;5010907;28;19925;-76
2023/06/04 02:05:29;;;;;;;;;;;18.10;71.80;;;;;;5015187;28;19925;-77
2023/06/04 02:07:57;;;;;;;;;;;18.00;71.70;;;;;;5029550;28;19925;-77
2023/06/04 02:10:24;;;;;;;;;;;18.00;71.60;;;;;;5016131;28;19933;-76
2023/06/04 02:12:55;;;;;;;;;;;18.00;71.80;;;;;;5027441;28;19982;-77
2023/06/04 02:15:23;;;;;;;;;;;17.90;71.80;;;;;;5031758;28;20311;-77
2023/06/04 02:17:50;;;;;;;;;;;17.90;71.80;;;;;;5031113;28;19933;-77
2023/06/04 02:20:17;;;;;;;;;;;17.90;71.90;;;;;;5030529;28;20395;-77
2023/06/04 02:22:44;;;;;;;;;;;17.90;71.90;;;;;;5027173;28;19979;-77
2023/06/04 02:25:12;;;;;;;;;;;17.90;72.00;;;;;;5017709;28;19925;-77
2023/06/04 02:27:39;;;;;;;;;;;17.80;72.00;;;;;;5033504;28;20304;-77
2023/06/04 02:30:06;;;;;;;;;;;17.80;72.20;;;;;;5030340;28;19976;-77
2023/06/04 02:32:35;;;;;;;;;;;17.80;72.30;;;;;;5027203;28;19964;-76
2023/06/04 02:35:02;;;;;;;;;;;17.80;72.50;;;;;;5029462;28;20016;-77
2023/06/04 02:37:30;;;;;;;;;;;17.80;72.60;;;;;;5028750;28;19932;-77
2023/06/04 02:39:57;;;;;;;;;;;17.70;72.50;;;;;;5030884;28;19967;-76
2023/06/04 02:42:25;;;;;;;;;;;17.70;72.50;;;;;;5017103;28;20342;-77
2023/06/04 02:44:53;;;;;;;;;;;17.70;72.60;;;;;;5012437;28;19971;-77
2023/06/04 02:47:20;;;;;;;;;;;17.70;72.50;;;;;;5028667;28;19933;-77
2023/06/04 02:49:47;;;;;;;;;;;17.60;72.30;;;;;;5012304;28;20390;-77
2023/06/04 02:52:14;;;;;;;;;;;17.60;72.40;;;;;;5012564;28;20015;-77
2023/06/04 02:54:41;;;;;;;;;;;17.60;72.50;;;;;;5027718;28;19933;-77
2023/06/04 02:57:08;;;;;;;;;;;17.60;72.50;;;;;;5031322;28;19925;-77
2023/06/04 02:59:37;;;;;;;;;;;17.50;72.60;;;;;;5027799;28;19929;-77
2023/06/04 03:02:04;;;;;;;;;;;17.50;72.80;;;;;;5027497;28;19959;-77
2023/06/04 03:04:34;;;;;;;;;;;17.50;72.80;;;;;;5030602;28;20455;-76
2023/06/04 03:07:02;;;;;;;;;;;17.50;72.80;;;;;;5029643;28;19932;-77
2023/06/04 03:09:29;;;;;;;;;;;17.50;72.80;;;;;;5028493;28;20415;-77
2023/06/04 03:11:59;;;;;;;;;;;17.40;72.80;;;;;;5029665;28;20375;-77
2023/06/04 03:14:31;;;;;;;;;;;17.40;72.80;;;;;;5029552;28;19971;-77
2023/06/04 03:17:07;;;;;;;;;;;17.40;72.70;;;;;;5029273;28;19925;-76
2023/06/04 03:19:34;;;;;;;;;;;17.40;72.70;;;;;;5023924;28;19944;-76
2023/06/04 03:22:05;;;;;;;;;;;17.40;72.80;;;;;;5026332;28;19932;-77
2023/06/04 03:24:33;;;;;;;;;;;17.40;72.90;;;;;;5028469;28;20024;-77
2023/06/04 03:27:00;;;;;;;;;;;17.30;73.70;;;;;;5016090;28;20012;-76
2023/06/04 03:29:28;;;;;;;;;;;17.30;72.90;;;;;;5011877;28;19925;-76
2023/06/04 03:31:55;;;;;;;;;;;17.30;72.80;;;;;;5028853;28;19951;-76
2023/06/04 03:34:25;;;;;;;;;;;17.30;72.80;;;;;;5016066;28;20319;-77
2023/06/04 03:36:51;;;;;;;;;;;17.20;72.80;;;;;;5027833;28;19952;-76
2023/06/04 03:39:19;;;;;;;;;;;17.20;72.80;;;;;;5027947;28;19929;-76
2023/06/04 03:41:46;;;;;;;;;;;17.20;72.70;;;;;;5026532;28;19936;-77
2023/06/04 03:44:13;;;;;;;;;;;17.20;72.80;;;;;;5010367;28;19930;-76
2023/06/04 03:46:40;;;;;;;;;;;17.10;72.60;;;;;;5025579;28;19951;-77
2023/06/04 03:49:07;;;;;;;;;;;17.10;72.60;;;;;;5028502;28;20396;-77
2023/06/04 03:51:36;;;;;;;;;;;17.10;72.60;;;;;;5036224;28;19925;-77
2023/06/04 03:54:05;;;;;;;;;;;17.10;72.70;;;;;;5017569;28;19932;-76
2023/06/04 03:56:33;;;;;;;;;;;17.00;72.60;;;;;;5025289;28;19936;-77
2023/06/04 03:59:00;;;;;;;;;;;17.00;72.70;;;;;;5008853;28;19926;-76
2023/06/04 04:01:28;;;;;;;;;;;17.00;72.80;;;;;;5007119;28;19929;-77
2023/06/04 04:03:55;;;;;;;;;;;17.00;72.80;;;;;;5030409;28;20032;-76
2023/06/04 04:06:22;;;;;;;;;;;17.00;72.90;;;;;;5011709;28;19940;-76
2023/06/04 04:08:51;;;;;;;;;;;16.90;73.00;;;;;;5014505;28;20007;-76
2023/06/04 04:11:20;;;;;;;;;;;16.90;73.00;;;;;;5027238;28;20449;-77
2023/06/04 04:13:47;;;;;;;;;;;16.90;73.00;;;;;;5026316;28;19936;-76
2023/06/04 04:16:14;;;;;;;;;;;16.90;72.90;;;;;;5018276;28;20011;-77
2023/06/04 04:18:43;;;;;;;;;;;16.80;72.80;;;;;;5026107;28;19932;-77
2023/06/04 04:21:10;;;;;;;;;;;16.80;72.80;;;;;;5023406;28;20359;-77
2023/06/04 04:23:48;;;;;;;;;;;16.80;72.80;;;;;;5028658;28;19982;-77
2023/06/04 04:26:17;;;;;;;;;;;16.80;72.90;;;;;;5028014;28;20272;-77
2023/06/04 04:28:49;;;;;;;;;;;16.70;73.00;;;;;;5025036;28;19930;-77
2023/06/04 04:31:17;;;;;;;;;;;16.70;73.00;;;;;;5027988;28;20348;-77
2023/06/04 04:33:44;;;;;;;;;;;16.70;73.20;;;;;;5016272;28;19929;-77
2023/06/04 04:36:13;;;;;;;;;;;16.70;73.20;;;;;;5008503;28;19975;-77
2023/06/04 04:38:42;;;;;;;;;;;16.70;73.40;;;;;;5027219;28;19925;-76
2023/06/04 04:41:09;;;;;;;;;;;16.70;73.30;;;;;;5008029;28;20008;-76
2023/06/04 04:43:39;;;;;;;;;;;16.60;73.20;;;;;;5028330;28;19929;-77
2023/06/04 04:46:20;;;;;;;;;;;16.60;73.30;;;;;;5007993;28;20428;-77
2023/06/04 04:48:48;;;;;;;;;;;16.60;73.30;;;;;;5025104;28;19925;-77
2023/06/04 04:51:14;;;;;;;;;;;16.60;73.30;;;;;;5008490;28;19926;-77
2023/06/04 04:53:42;;;;;;;;;;;16.60;73.40;;;;;;5023897;28;19933;-76
2023/06/04 04:56:09;;;;;;;;;;;16.50;73.30;;;;;;5023709;28;19925;-77
2023/06/04 04:58:42;;;;;;;;;;;16.50;73.30;;;;;;5025630;28;19936;-76
2023/06/04 05:01:09;;;;;;;;;;;16.50;73.30;;;;;;5027987;28;19933;-77
2023/06/04 05:03:37;;;;;;;;;;;16.50;73.20;;;;;;5011837;28;19939;-77
2023/06/04 05:06:04;;;;;;;;;;;16.50;73.10;;;;;;5009252;28;20045;-76
2023/06/04 05:08:31;;;;;;;;;;;16.50;73.20;;;;;;5016622;28;20697;-77
2023/06/04 05:10:58;;;;;;;;;;;16.50;73.20;;;;;;5007903;28;19929;-76
2023/06/04 05:13:25;;;;;;;;;;;16.50;73.10;;;;;;5027239;28;19932;-76
2023/06/04 05:16:06;;;;;;;;;;;16.50;73.30;;;;;;5027552;28;19925;-77
2023/06/04 05:18:40;;;;;;;;;;;16.50;73.10;;;;;;5026313;28;19933;-76
2023/06/04 05:21:08;;;;;;;;;;;16.50;73.10;;;;;;5025792;28;19931;-77
2023/06/04 05:23:40;;;;;;;;;;;16.40;72.90;;;;;;5023677;28;20281;-76
2023/06/04 05:26:08;;;;;;;;;;;16.50;73.10;;;;;;5002672;28;19936;-77
2023/06/04 05:28:35;;;;;;;;;;;16.40;73.10;;;;;;5026468;28;19935;-76
2023/06/04 05:31:05;;;;;;;;;;;16.40;73.20;;;;;;5025733;28;19931;-76
2023/06/04 05:33:34;;;;;;;;;;;16.40;73.30;;;;;;5026976;28;19968;-76
2023/06/04 05:36:06;;;;;;;;;;;16.40;73.30;;;;;;5027589;28;20399;-77
2023/06/04 05:38:39;;;;;;;;;;;16.40;73.20;;;;;;5024854;28;20024;-77
2023/06/04 05:41:11;;;;;;;;;;;16.40;73.40;;;;;;5027691;28;19929;-76
2023/06/04 05:43:39;;;;;;;;;;;16.40;73.50;;;;;;5023457;28;19933;-76
2023/06/04 05:46:10;;;;;;;;;;;16.40;73.60;;;;;;5029255;28;20422;-76
2023/06/04 05:48:38;;;;;;;;;;;16.40;73.60;;;;;;5011041;28;19955;-76
2023/06/04 05:51:05;;;;;;;;;;;16.40;73.60;;;;;;5028198;28;19933;-77
2023/06/04 05:53:32;;;;;;;;;;;16.40;73.60;;;;;;5027817;28;19978;-76
2023/06/04 05:55:59;;;;;;;;;;;16.40;73.40;;;;;;5023193;28;19956;-77
2023/06/04 05:58:26;;;;;;;;;;;16.40;73.50;;;;;;5017719;28;20380;-77
2023/06/04 06:00:53;;;;;;;;;;;16.40;73.80;;;;;;5027487;28;20341;-77
2023/06/04 06:03:22;;;;;;;;;;;16.40;73.80;;;;;;5028864;28;19991;-77
2023/06/04 06:05:50;;;;;;;;;;;16.40;74.40;;;;;;5028490;28;19968;-76
2023/06/04 06:08:17;;;;;;;;;;;16.40;73.60;;;;;;5022956;28;19933;-77
2023/06/04 06:10:44;;;;;;;;;;;16.40;73.70;;;;;;5024641;28;20396;-77
2023/06/04 06:13:11;;;;;;;;;;;16.40;73.70;;;;;;5013190;28;20042;-77
2023/06/04 06:15:38;;;;;;;;;;;16.40;73.80;;;;;;5025625;28;20028;-77
2023/06/04 06:18:05;;;;;;;;;;;16.40;73.80;;;;;;5024887;28;20048;-77
2023/06/04 06:20:33;;;;;;;;;;;16.40;74.00;;;;;;5026952;28;19937;-76
2023/06/04 06:23:06;;;;;;;;;;;16.40;73.90;;;;;;5025341;28;19925;-76
2023/06/04 06:25:33;;;;;;;;;;;16.40;74.20;;;;;;5031477;28;19925;-77
2023/06/04 06:28:05;;;;;;;;;;;16.40;74.30;;;;;;5010326;28;19925;-76
2023/06/04 06:30:33;;;;;;;;;;;16.40;74.30;;;;;;5015257;28;19929;-76
2023/06/04 06:33:00;;;;;;;;;;;16.40;74.30;;;;;;5032033;28;20465;-76
2023/06/04 06:35:27;;;;;;;;;;;16.50;74.70;;;;;;5028352;28;19925;-77
2023/06/04 06:37:55;;;;;;;;;;;16.50;74.80;;;;;;5010700;28;19929;-76
2023/06/04 06:40:22;;;;;;;;;;;16.40;74.80;;;;;;5030008;28;19932;-76
2023/06/04 06:42:51;;;;;;;;;;;16.40;74.80;;;;;;5008906;28;20100;-77
2023/06/04 06:45:18;;;;;;;;;;;16.50;75.00;;;;;;5014059;28;19925;-76
2023/06/04 06:47:45;;;;;;;;;;;16.50;75.10;;;;;;5013459;28;19925;-76
2023/06/04 06:50:12;;;;;;;;;;;16.50;75.30;;;;;;5026855;28;20391;-77
2023/06/04 06:52:38;;;;;;;;;;;16.50;75.40;;;;;;5027554;28;19967;-77
2023/06/04 06:55:07;;;;;;;;;;;16.50;75.30;;;;;;5015281;28;19961;-77
2023/06/04 06:57:34;;;;;;;;;;;16.60;75.60;;;;;;5030641;28;20486;-76
2023/06/04 07:00:01;;;;;;;;;;;16.60;75.60;;;;;;5031980;28;19929;-77
2023/06/04 07:02:28;;;;;;;;;;;16.60;75.80;;;;;;5027662;28;19932;-77
2023/06/04 07:04:55;;;;;;;;;;;16.60;75.90;;;;;;5031015;28;19979;-77
2023/06/04 07:07:22;;;;;;;;;;;16.60;75.80;;;;;;5026754;28;20385;-77
2023/06/04 07:09:49;;;;;;;;;;;16.60;76.00;;;;;;5028344;28;19940;-77
2023/06/04 07:12:17;;;;;;;;;;;16.60;75.90;;;;;;5029955;28;19975;-77
2023/06/04 07:14:44;;;;;;;;;;;16.60;76.20;;;;;;5029691;28;20024;-77
2023/06/04 07:17:11;;;;;;;;;;;16.70;76.30;;;;;;5026996;28;19925;-76
2023/06/04 07:19:38;;;;;;;;;;;16.70;76.40;;;;;;5027792;28;20396;-77
2023/06/04 07:22:05;;;;;;;;;;;16.70;76.40;;;;;;5012468;28;19933;-77
2023/06/04 07:24:32;;;;;;;;;;;16.70;76.40;;;;;;5028481;28;19929;-76
2023/06/04 07:26:59;;;;;;;;;;;16.70;76.40;;;;;;5020271;28;20358;-76
2023/06/04 07:29:27;;;;;;;;;;;16.70;76.60;;;;;;5013530;28;19952;-77
2023/06/04 07:31:54;;;;;;;;;;;16.70;76.70;;;;;;5028522;28;19957;-76
2023/06/04 07:34:20;;;;;;;;;;;16.70;76.70;;;;;;5012498;28;19933;-77
2023/06/04 07:36:48;;;;;;;;;;;16.80;76.90;;;;;;5031067;28;19980;-77
2023/06/04 07:39:14;;;;;;;;;;;16.80;76.90;;;;;;5028461;28;19926;-77
2023/06/04 07:41:41;;;;;;;;;;;16.80;76.90;;;;;;5007656;28;19925;-77
2023/06/04 07:44:08;;;;;;;;;;;16.80;76.90;;;;;;5030100;28;19933;-76
2023/06/04 07:46:38;;;;;;;;;;;16.80;76.80;;;;;;5025033;28;20326;-77
2023/06/04 07:49:07;;;;;;;;;;;16.80;76.80;;;;;;5029713;28;19960;-77
2023/06/04 07:51:34;;;;;;;;;;;16.80;76.90;;;;;;5030350;28;20016;-77
2023/06/04 07:54:03;;;;;;;;;;;16.80;76.90;;;;;;5029223;28;20173;-77
2023/06/04 07:56:30;;;;;;;;;;;16.80;77.00;;;;;;5026135;28;20345;-77
2023/06/04 07:58:56;;;;;;;;;;;16.80;77.00;;;;;;5029215;28;20028;-76
2023/06/04 08:01:24;;;;;;;;;;;16.80;77.20;;;;;;5029883;28;19971;-77
2023/06/04 08:03:52;;;;;;;;;;;16.90;77.20;;;;;;5028813;28;19936;-76
2023/06/04 08:06:19;;;;;;;;;;;16.90;77.30;;;;;;5027021;28;19929;-77
2023/06/04 08:08:48;;;;;;;;;;;16.90;77.30;;;;;;5028609;28;19932;-77
2023/06/04 08:11:15;;;;;;;;;;;16.90;77.40;;;;;;5029676;28;19980;-76
2023/06/04 08:13:42;;;;;;;;;;;16.90;77.40;;;;;;5026793;28;19929;-77
2023/06/04 08:16:10;;;;;;;;;;;16.90;77.40;;;;;;5027542;28;19925;-76
2023/06/04 08:18:43;;;;;;;;;;;16.90;77.50;;;;;;5015411;28;20387;-77
2023/06/04 08:21:12;;;;;;;;;;;16.90;77.50;;;;;;5027062;28;20449;-77
2023/06/04 08:23:38;;;;;;;;;;;17.00;77.60;;;;;;5025025;28;19964;-77
2023/06/04 08:26:07;;;;;;;;;;;16.90;77.60;;;;;;5025910;28;19972;-77
2023/06/04 08:28:38;;;;;;;;;;;17.00;77.70;;;;;;5028679;28;20036;-77
2023/06/04 08:31:05;;;;;;;;;;;17.00;77.90;;;;;;5028236;28;19932;-78
2023/06/04 08:33:32;;;;;;;;;;;17.00;77.90;;;;;;5025928;28;20411;-77
2023/06/04 08:35:59;;;;;;;;;;;17.00;77.90;;;;;;5031692;28;19984;-77
2023/06/04 08:38:27;;;;;;;;;;;17.10;78.10;;;;;;5028040;28;19979;-77
2023/06/04 08:40:59;;;;;;;;;;;17.00;78.00;;;;;;5029677;28;19965;-77
2023/06/04 08:43:26;;;;;;;;;;;17.10;78.10;;;;;;5028593;28;20454;-77
2023/06/04 08:45:58;;;;;;;;;;;17.10;78.30;;;;;;5029094;28;19925;-77
2023/06/04 08:48:26;;;;;;;;;;;17.10;78.20;;;;;;5008601;28;19991;-77
2023/06/04 08:50:57;;;;;;;;;;;17.10;78.20;;;;;;5026094;28;19925;-76
2023/06/04 08:53:24;;;;;;;;;;;17.10;78.10;;;;;;5029090;28;19925;-77
2023/06/04 08:55:53;;;;;;;;;;;17.20;78.20;;;;;;5030480;28;19929;-76
2023/06/04 08:58:21;;;;;;;;;;;17.20;78.30;;;;;;5013975;28;19929;-77
2023/06/04 09:00:48;;;;;;;;;;;17.10;78.30;;;;;;5025269;28;19978;-77
2023/06/04 09:03:16;;;;;;;;;;;17.20;78.40;;;;;;5028748;28;19932;-77
2023/06/04 09:05:47;;;;;;;;;;;17.20;78.60;;;;;;5029142;28;19928;-77
2023/06/04 09:08:15;;;;;;;;;;;17.20;78.60;;;;;;5024438;28;19932;-77
2023/06/04 09:10:42;;;;;;;;;;;17.20;78.70;;;;;;5029026;28;19947;-76
2023/06/04 09:13:10;;;;;;;;;;;17.20;78.60;;;;;;5023526;28;19929;-77
2023/06/04 09:15:37;;;;;;;;;;;17.20;78.60;;;;;;5024834;28;19991;-77
2023/06/04 09:18:04;;;;;;;;;;;17.30;78.80;;;;;;5027745;28;19947;-77
2023/06/04 09:20:32;;;;;;;;;;;17.30;78.90;;;;;;5024560;28;20396;-77
2023/06/04 09:22:59;;;;;;;;;;;17.30;78.90;;;;;;5027547;28;19926;-77
2023/06/04 09:25:27;;;;;;;;;;;17.30;79.00;;;;;;5024526;28;20015;-78
2023/06/04 09:27:55;;;;;;;;;;;17.30;79.10;;;;;;5028199;28;19936;-77
2023/06/04 09:30:23;;;;;;;;;;;17.30;79.20;;;;;;5027138;28;19969;-77
2023/06/04 09:32:50;;;;;;;;;;;17.30;79.20;;;;;;5029110;28;19932;-77
2023/06/04 09:35:18;;;;;;;;;;;17.40;79.20;;;;;;5023987;28;19980;-77
2023/06/04 09:37:55;;;;;;;;;;;17.40;79.00;;;;;;5009092;28;19926;-77
2023/06/04 09:40:22;;;;;;;;;;;17.40;79.10;;;;;;5028855;28;19925;-77
2023/06/04 09:42:54;;;;;;;;;;;17.40;79.10;;;;;;5028806;28;20320;-77
2023/06/04 09:45:32;;;;;;;;;;;17.40;79.00;;;;;;5025513;28;19929;-77
2023/06/04 09:47:59;;;;;;;;;;;17.40;79.00;;;;;;5023180;28;19929;-78
2023/06/04 09:50:26;;;;;;;;;;;17.40;79.10;;;;;;5027412;28;20365;-77
2023/06/04 09:52:53;;;;;;;;;;;17.40;79.00;;;;;;5025771;28;19926;-78
2023/06/04 09:55:22;;;;;;;;;;;17.50;79.10;;;;;;5026551;28;19925;-77
2023/06/04 09:57:49;;;;;;;;;;;17.50;78.90;;;;;;5028415;28;19964;-77
2023/06/04 10:00:17;;;;;;;;;;;17.50;79.00;;;;;;5030098;28;20430;-77
2023/06/04 10:02:46;;;;;;;;;;;17.50;79.10;;;;;;5028610;28;20425;-77
2023/06/04 10:05:14;;;;;;;;;;;17.50;79.10;;;;;;5030661;28;19932;-78
2023/06/04 10:07:43;;;;;;;;;;;17.60;79.30;;;;;;5032424;28;19929;-77
2023/06/04 10:10:12;;;;;;;;;;;17.60;79.20;;;;;;5029372;28;20441;-78
2023/06/04 10:12:39;;;;;;;;;;;17.60;79.30;;;;;;5028489;28;19932;-77
2023/06/04 10:15:08;;;;;;;;;;;17.60;79.30;;;;;;5018033;28;20019;-77
2023/06/04 10:17:36;;;;;;;;;;;17.60;79.20;;;;;;5031239;28;19926;-77
2023/06/04 10:20:05;;;;;;;;;;;17.60;79.10;;;;;;5027591;28;20342;-77
2023/06/04 10:22:33;;;;;;;;;;;17.60;78.90;;;;;;5032326;28;19936;-77
2023/06/04 10:25:01;;;;;;;;;;;17.70;79.00;;;;;;5031376;28;19979;-77
2023/06/04 10:27:28;;;;;;;;;;;17.70;78.90;;;;;;5032735;28;20299;-77
2023/06/04 10:29:58;;;;;;;;;;;17.70;78.80;;;;;;5031123;28;19925;-77
2023/06/04 10:32:27;;;;;;;;;;;17.70;78.90;;;;;;5031553;28;19925;-77
2023/06/04 10:34:55;;;;;;;;;;;17.70;78.90;;;;;;5031799;28;19925;-77
2023/06/04 10:37:23;;;;;;;;;;;17.70;79.10;;;;;;5024231;28;19965;-77
2023/06/04 10:39:54;;;;;;;;;;;17.80;79.10;;;;;;5030936;28;20425;-77
2023/06/04 10:42:21;;;;;;;;;;;17.70;79.10;;;;;;5025480;28;19932;-77
2023/06/04 10:44:48;;;;;;;;;;;17.80;79.20;;;;;;5023560;28;20395;-77
2023/06/04 10:47:19;;;;;;;;;;;17.80;79.20;;;;;;5029962;28;21334;-77
2023/06/04 10:49:46;;;;;;;;;;;17.80;79.20;;;;;;5027200;28;19925;-77
2023/06/04 10:52:12;;;;;;;;;;;17.80;79.00;;;;;;5012654;28;20379;-77
2023/06/04 10:54:42;;;;;;;;;;;17.90;79.10;;;;;;5030624;28;19931;-77
2023/06/04 10:57:12;;;;;;;;;;;17.90;78.80;;;;;;5027562;28;19925;-77
2023/06/04 10:59:39;;;;;;;;;;;17.90;78.60;;;;;;5013802;28;19925;-77
2023/06/04 11:02:10;;;;;;;;;;;17.90;78.80;;;;;;5023792;28;19925;-77
2023/06/04 11:04:38;;;;;;;;;;;17.90;78.70;;;;;;5031168;28;20008;-77
2023/06/04 11:07:08;;;;;;;;;;;17.90;78.50;;;;;;5029857;28;19931;-77
2023/06/04 11:09:35;;;;;;;;;;;17.90;78.60;;;;;;5012941;28;19968;-77
2023/06/04 11:12:05;;;;;;;;;;;18.00;78.70;;;;;;5026822;28;19929;-77
2023/06/04 11:14:32;;;;;;;;;;;18.00;78.50;;;;;;5029700;28;19933;-77
2023/06/04 11:17:09;;;;;;;;;;;18.00;78.50;;;;;;5030962;28;19925;-77
2023/06/04 11:19:36;;;;;;;;;;;18.00;78.40;;;;;;5030581;28;20693;-77
2023/06/04 11:22:03;;;;;;;;;;;18.00;78.50;;;;;;5026740;28;19964;-77
2023/06/04 11:24:30;;;;;;;;;;;18.10;78.80;;;;;;5030396;28;19987;-77
2023/06/04 11:26:59;;;;;;;;;;;18.10;78.90;;;;;;5030132;28;19983;-77
2023/06/04 11:29:27;;;;;;;;;;;18.10;78.50;;;;;;5027539;28;19933;-77
2023/06/04 11:31:54;;;;;;;;;;;18.20;78.70;;;;;;5031025;28;20311;-77
2023/06/04 11:34:24;;;;;;;;;;;18.20;78.70;;;;;;5030342;28;19956;-78
2023/06/04 11:36:52;;;;;;;;;;;18.20;78.70;;;;;;5030757;28;20531;-78
2023/06/04 11:39:19;;;;;;;;;;;18.20;78.80;;;;;;5028004;28;19925;-78
2023/06/04 11:41:46;;;;;;;;;;;18.20;79.20;;;;;;5029170;28;19925;-77
2023/06/04 11:44:14;;;;;;;;;;;18.30;79.10;;;;;;5030715;28;20006;-77
2023/06/04 11:46:43;;;;;;;;;;;18.30;79.40;;;;;;5031073;28;19932;-77
2023/06/04 11:49:12;;;;;;;;;;;18.30;79.40;;;;;;5026413;28;19930;-77
2023/06/04 11:51:39;;;;;;;;;;;18.30;79.40;;;;;;5035769;28;20031;-77
2023/06/04 11:54:06;;;;;;;;;;;18.30;79.50;;;;;;5029779;28;19929;-77
2023/06/04 11:56:33;;;;;;;;;;;18.40;79.70;;;;;;5025272;28;19941;-78
2023/06/04 11:59:00;;;;;;;;;;;18.40;79.80;;;;;;5028241;28;20391;-77
2023/06/04 12:01:28;;;;;;;;;;;18.40;79.40;;;;;;5030029;28;19968;-77
2023/06/04 12:03:56;;;;;;;;;;;18.50;79.70;;;;;;5030735;28;19967;-77
2023/06/04 12:06:23;;;;;;;;;;;18.50;80.20;;;;;;5025997;28;21061;-77
2023/06/04 12:08:51;;;;;;;;;;;18.50;79.70;;;;;;5029195;28;19937;-77
2023/06/04 12:11:28;;;;;;;;;;;18.60;79.30;;;;;;5031170;28;19925;-77
2023/06/04 12:13:55;;;;;;;;;;;18.60;78.80;;;;;;5022094;28;19925;-77
2023/06/04 12:16:22;;;;;;;;;;;18.70;78.70;;;;;;5027018;28;20465;-77
2023/06/04 12:18:50;;;;;;;;;;;18.70;79.00;;;;;;5025138;28;20478;-77
2023/06/04 12:21:21;;;;;;;;;;;18.70;79.40;;;;;;5023835;28;20422;-78
2023/06/04 12:23:48;;;;;;;;;;;18.70;79.30;;;;;;5029313;28;19960;-77
2023/06/04 12:26:28;;;;;;;;;;;18.80;79.60;;;;;;5029486;28;19948;-78
2023/06/04 12:29:01;;;;;;;;;;;18.80;79.70;;;;;;5025842;28;20339;-77
2023/06/04 12:31:31;;;;;;;;;;;18.80;79.50;;;;;;5028653;28;19978;-78
2023/06/04 12:33:59;;;;;;;;;;;18.90;79.40;;;;;;5029264;28;20015;-77
2023/06/04 12:36:28;;;;;;;;;;;18.90;79.70;;;;;;5025851;28;20411;-77
2023/06/04 12:38:56;;;;;;;;;;;18.90;79.70;;;;;;5022614;28;20064;-77
2023/06/04 12:41:23;;;;;;;;;;;19.00;79.80;;;;;;5028448;28;19972;-78
2023/06/04 12:43:50;;;;;;;;;;;19.00;79.60;;;;;;5026274;28;19933;-77
2023/06/04 12:46:17;;;;;;;;;;;19.00;79.50;;;;;;5009035;28;19925;-77
2023/06/04 12:48:44;;;;;;;;;;;19.10;79.70;;;;;;5029027;28;19925;-77
2023/06/04 12:51:11;;;;;;;;;;;19.10;79.60;;;;;;5029786;28;20510;-77
2023/06/04 12:53:40;;;;;;;;;;;19.20;79.10;;;;;;5026671;28;20032;-77
2023/06/04 12:56:07;;;;;;;;;;;19.20;79.10;;;;;;5029826;28;19925;-77
2023/06/04 12:58:34;;;;;;;;;;;19.30;79.30;;;;;;5029141;28;20004;-78
2023/06/04 13:01:01;;;;;;;;;;;19.30;79.80;;;;;;5028565;28;19929;-77
2023/06/04 13:03:28;;;;;;;;;;;19.30;79.80;;;;;;5026664;28;19939;-77
2023/06/04 13:05:55;;;;;;;;;;;19.40;79.70;;;;;;5029137;28;19947;-77
2023/06/04 13:08:22;;;;;;;;;;;19.40;79.40;;;;;;5026928;28;20004;-77
2023/06/04 13:10:51;;;;;;;;;;;19.50;79.30;;;;;;5029225;28;19925;-77
2023/06/04 13:13:17;;;;;;;;;;;19.50;79.20;;;;;;5026600;28;20346;-77
2023/06/04 13:15:45;;;;;;;;;;;19.50;79.30;;;;;;5025271;28;20020;-77
2023/06/04 13:18:12;;;;;;;;;;;19.60;79.40;;;;;;5031055;28;19925;-77
2023/06/04 13:20:40;;;;;;;;;;;19.60;79.50;;;;;;5026455;28;20304;-77
2023/06/04 13:23:08;;;;;;;;;;;19.60;79.40;;;;;;5030773;28;19948;-77
2023/06/04 13:25:35;;;;;;;;;;;19.70;79.50;;;;;;5029046;28;20023;-77
2023/06/04 13:28:03;;;;;;;;;;;19.70;79.50;;;;;;5028508;28;19929;-77
2023/06/04 13:30:30;;;;;;;;;;;19.80;79.40;;;;;;5026218;28;19929;-77
2023/06/04 13:32:58;;;;;;;;;;;19.80;79.00;;;;;;5028965;28;19960;-77
2023/06/04 13:35:25;;;;;;;;;;;19.80;79.20;;;;;;5031894;28;20413;-78
2023/06/04 13:37:51;;;;;;;;;;;19.90;79.20;;;;;;5012448;28;19933;-77
2023/06/04 13:40:18;;;;;;;;;;;20.00;79.40;;;;;;5033423;28;19928;-77
2023/06/04 13:42:46;;;;;;;;;;;20.00;79.50;;;;;;5032500;28;19961;-77
2023/06/04 13:45:16;;;;;;;;;;;20.00;78.90;;;;;;5033153;28;19936;-77
2023/06/04 13:47:43;;;;;;;;;;;20.00;78.90;;;;;;5027326;28;19926;-77
2023/06/04 13:50:11;;;;;;;;;;;20.10;78.70;;;;;;5032951;28;20012;-77
2023/06/04 13:52:37;;;;;;;;;;;20.10;78.70;;;;;;5032491;28;19929;-77
2023/06/04 13:55:04;;;;;;;;;;;20.20;78.60;;;;;;5032004;28;19936;-78
2023/06/04 13:57:31;;;;;;;;;;;20.20;78.60;;;;;;5030008;28;19999;-77
2023/06/04 13:59:58;;;;;;;;;;;20.30;78.80;;;;;;5032962;28;19948;-78
2023/06/04 14:02:26;;;;;;;;;;;20.30;78.90;;;;;;5032805;28;19925;-77
2023/06/04 14:04:54;;;;;;;;;;;20.30;79.10;;;;;;5031204;28;19925;-77
2023/06/04 14:07:21;;;;;;;;;;;20.40;79.30;;;;;;5026007;28;19952;-77
2023/06/04 14:09:54;;;;;;;;;;;20.40;79.60;;;;;;5031345;28;19925;-77
2023/06/04 14:12:21;;;;;;;;;;;20.40;79.50;;;;;;5032524;28;19979;-78
2023/06/04 14:14:47;;;;;;;;;;;20.50;79.40;;;;;;5031445;28;19932;-77
2023/06/04 14:17:17;;;;;;;;;;;20.50;79.00;;;;;;5029166;28;19933;-78
2023/06/04 14:19:45;;;;;;;;;;;20.50;78.80;;;;;;5031799;28;19929;-78
2023/06/04 14:22:12;;;;;;;;;;;20.50;78.50;;;;;;5032491;28;19932;-77